createdAt,value
2022-11-28T00:00:34.154Z,13.3
2022-11-28T00:01:41.511Z,13.5
2022-11-28T00:02:34.246Z,13.8
2022-11-28T00:03:34.421Z,13.2
2022-11-28T00:04:34.134Z,13.4
2022-11-28T00:05:34.627Z,12.5
2022-11-28T00:06:42.274Z,11.8
2022-11-28T00:07:34.010Z,13.0
2022-11-28T00:08:34.642Z,13.4
2022-11-28T00:09:34.111Z,11.4
2022-11-28T00:10:37.903Z,12.8
2022-11-28T00:11:34.661Z,11.9
2022-11-28T00:12:34.477Z,11.9
2022-11-28T00:13:34.294Z,13.5
2022-11-28T00:14:34.045Z,13.3
2022-11-28T00:15:34.786Z,12.4
2022-11-28T00:16:34.995Z,13.1
2022-11-28T00:17:33.901Z,13.4
2022-11-28T00:18:34.665Z,11.9
2022-11-28T00:19:33.978Z,11.7
2022-11-28T00:20:34.653Z,11.4
2022-11-28T00:21:34.820Z,12.4
2022-11-28T00:22:34.957Z,11.7
2022-11-28T00:23:34.967Z,11.4
2022-11-28T00:24:33.958Z,12.0
2022-11-28T00:25:34.264Z,13.1
2022-11-28T00:26:36.128Z,11.9
2022-11-28T00:27:34.378Z,12.2
2022-11-28T00:28:34.835Z,12.8
2022-11-28T00:29:34.384Z,12.4
2022-11-28T00:30:37.454Z,12.0
2022-11-28T00:31:36.024Z,11.0
2022-11-28T00:32:34.737Z,11.8
2022-11-28T00:33:34.187Z,12.4
2022-11-28T00:34:34.453Z,12.6
2022-11-28T00:35:34.134Z,11.9
2022-11-28T00:36:34.225Z,12.4
2022-11-28T00:37:34.636Z,11.3
2022-11-28T00:38:34.773Z,12.1
2022-11-28T00:39:34.727Z,11.9
2022-11-28T00:40:34.173Z,13.8
2022-11-28T00:41:33.932Z,10.8
2022-11-28T00:42:34.185Z,12.1
2022-11-28T00:43:34.510Z,11.3
2022-11-28T00:44:34.237Z,12.2
2022-11-28T00:45:34.693Z,10.9
2022-11-28T00:46:34.624Z,11.9
2022-11-28T00:47:34.672Z,11.1
2022-11-28T00:48:35.180Z,13.4
2022-11-28T00:49:34.616Z,10.9
2022-11-28T00:50:33.927Z,12.6
2022-11-28T00:51:34.180Z,10.3
2022-11-28T00:52:34.005Z,12.0
2022-11-28T00:53:34.766Z,12.6
2022-11-28T00:54:34.226Z,13.4
2022-11-28T00:55:33.912Z,11.8
2022-11-28T00:56:37.079Z,11.9
2022-11-28T00:57:34.465Z,11.6
2022-11-28T00:58:35.599Z,10.6
2022-11-28T00:59:34.686Z,12.3
2022-11-28T01:00:34.443Z,11.3
2022-11-28T01:01:38.635Z,10.6
2022-11-28T01:02:34.369Z,10.7
2022-11-28T01:03:34.513Z,10.9
2022-11-28T01:04:33.942Z,10.3
2022-11-28T01:05:38.696Z,10.8
2022-11-28T01:06:38.987Z,11.1
2022-11-28T01:07:34.791Z,10.4
2022-11-28T01:08:35.191Z,9.6
2022-11-28T01:09:34.303Z,10.7
2022-11-28T01:10:37.894Z,10.8
2022-11-28T01:11:34.513Z,11.0
2022-11-28T01:12:34.157Z,10.3
2022-11-28T01:13:34.071Z,9.5
2022-11-28T01:14:34.741Z,11.4
2022-11-28T01:15:34.664Z,11.3
2022-11-28T01:16:34.556Z,10.3
2022-11-28T01:17:34.479Z,11.5
2022-11-28T01:18:34.372Z,10.2
2022-11-28T01:19:34.649Z,11.8
2022-11-28T01:20:34.678Z,9.9
2022-11-28T01:21:34.604Z,10.5
2022-11-28T01:22:34.509Z,11.3
2022-11-28T01:23:33.982Z,10.7
2022-11-28T01:24:34.178Z,9.6
2022-11-28T01:25:34.437Z,9.9
2022-11-28T01:26:34.208Z,11.0
2022-11-28T01:27:34.452Z,11.1
2022-11-28T01:28:34.722Z,9.4
2022-11-28T01:29:34.135Z,8.6
2022-11-28T01:30:36.911Z,11.6
2022-11-28T01:31:34.458Z,10.1
2022-11-28T01:32:34.346Z,11.4
2022-11-28T01:33:34.868Z,11.4
2022-11-28T01:34:34.426Z,10.5
2022-11-28T01:35:34.286Z,10.3
2022-11-28T01:36:34.109Z,10.4
2022-11-28T01:37:33.904Z,11.2
2022-11-28T01:38:34.647Z,9.2
2022-11-28T01:39:34.460Z,10.7
2022-11-28T01:40:34.281Z,9.2
2022-11-28T01:41:34.212Z,9.9
2022-11-28T01:42:34.393Z,11.9
2022-11-28T01:43:34.675Z,9.9
2022-11-28T01:44:39.000Z,9.6
2022-11-28T01:45:34.675Z,10.2
2022-11-28T01:46:35.122Z,9.6
2022-11-28T01:47:34.765Z,10.4
2022-11-28T01:48:39.116Z,11.9
2022-11-28T01:49:35.084Z,11.1
2022-11-28T01:50:35.166Z,11.2
2022-11-28T01:51:35.106Z,10.7
2022-11-28T01:52:36.771Z,11.5
2022-11-28T01:53:36.778Z,13.0
2022-11-28T01:54:35.368Z,9.6
2022-11-28T01:55:39.079Z,9.7
2022-11-28T01:56:46.479Z,11.6
2022-11-28T01:57:34.816Z,9.7
2022-11-28T01:58:37.918Z,9.4
2022-11-28T01:59:38.094Z,10.8
2022-11-28T02:00:34.706Z,11.4
2022-11-28T02:01:34.430Z,10.7
2022-11-28T02:02:45.582Z,10.9
2022-11-28T02:03:42.165Z,9.9
2022-11-28T02:04:34.697Z,10.4
2022-11-28T02:05:34.764Z,9.7
2022-11-28T02:06:34.590Z,10.2
2022-11-28T02:07:35.115Z,9.3
2022-11-28T02:08:34.163Z,9.8
2022-11-28T02:09:34.784Z,10.3
2022-11-28T02:10:47.761Z,10.4
2022-11-28T02:11:39.713Z,9.7
2022-11-28T02:12:48.277Z,9.6
2022-11-28T02:13:38.827Z,10.5
2022-11-28T02:14:39.653Z,10.2
2022-11-28T02:15:45.259Z,9.2
2022-11-28T02:16:50.778Z,10.3
2022-11-28T02:17:41.825Z,9.3
2022-11-28T02:18:46.066Z,10.3
2022-11-28T02:19:52.719Z,11.5
2022-11-28T02:20:51.259Z,10.4
2022-11-28T02:21:56.805Z,10.9
2022-11-28T02:22:39.011Z,10.7
2022-11-28T02:23:48.262Z,11.7
2022-11-28T02:24:42.128Z,9.8
2022-11-28T02:25:47.805Z,9.3
2022-11-28T02:26:41.798Z,9.1
2022-11-28T02:27:39.379Z,8.6
2022-11-28T02:28:53.821Z,8.4
2022-11-28T02:29:52.190Z,9.0
2022-11-28T02:30:41.780Z,9.1
2022-11-28T02:31:39.630Z,9.6
2022-11-28T02:32:52.687Z,9.5
2022-11-28T02:33:45.745Z,9.0
2022-11-28T02:34:45.608Z,9.2
2022-11-28T02:35:41.479Z,9.4
2022-11-28T02:36:39.553Z,9.6
2022-11-28T02:37:42.259Z,9.9
2022-11-28T02:38:41.775Z,9.4
2022-11-28T02:39:39.479Z,10.0
2022-11-28T02:40:53.766Z,9.3
2022-11-28T02:41:52.205Z,10.8
2022-11-28T02:42:44.878Z,9.9
2022-11-28T02:43:48.276Z,10.1
2022-11-28T02:44:39.719Z,8.9
2022-11-28T02:45:52.696Z,9.8
2022-11-28T02:46:45.330Z,7.8
2022-11-28T02:47:44.864Z,9.9
2022-11-28T02:48:47.778Z,10.7
2022-11-28T02:49:47.823Z,9.0
2022-11-28T02:50:41.636Z,9.3
2022-11-28T02:51:39.581Z,9.6
2022-11-28T02:52:36.771Z,9.7
2022-11-28T02:53:35.703Z,9.3
2022-11-28T02:54:34.483Z,9.4
2022-11-28T02:55:36.851Z,8.8
2022-11-28T02:56:34.265Z,10.9
2022-11-28T02:57:41.826Z,9.4
2022-11-28T02:58:35.303Z,8.9
2022-11-28T02:59:42.312Z,9.8
2022-11-28T03:00:35.747Z,9.7
2022-11-28T03:01:35.942Z,10.2
2022-11-28T03:02:34.224Z,8.7
2022-11-28T03:03:52.717Z,8.4
2022-11-28T03:04:38.810Z,8.6
2022-11-28T03:05:39.610Z,8.3
2022-11-28T03:06:53.291Z,8.4
2022-11-28T03:07:44.883Z,9.6
2022-11-28T03:08:38.940Z,8.5
2022-11-28T03:09:41.804Z,9.4
2022-11-28T03:10:42.343Z,9.1
2022-11-28T03:11:57.277Z,8.9
2022-11-28T03:12:44.784Z,8.0
2022-11-28T03:13:44.777Z,8.3
2022-11-28T03:14:47.797Z,9.0
2022-11-28T03:15:41.471Z,9.2
2022-11-28T03:16:39.359Z,10.4
2022-11-28T03:17:53.787Z,9.7
2022-11-28T03:18:39.393Z,9.8
2022-11-28T03:19:37.768Z,9.6
2022-11-28T03:20:41.809Z,8.0
2022-11-28T03:21:47.811Z,9.8
2022-11-28T03:22:52.232Z,9.7
2022-11-28T03:23:42.304Z,9.6
2022-11-28T03:24:39.273Z,9.5
2022-11-28T03:25:39.016Z,8.9
2022-11-28T03:26:50.810Z,10.0
2022-11-28T03:27:41.418Z,10.2
2022-11-28T03:28:42.012Z,10.2
2022-11-28T03:29:37.060Z,9.1
2022-11-28T03:30:43.612Z,9.0
2022-11-28T03:31:37.882Z,7.5
2022-11-28T03:32:36.146Z,8.2
2022-11-28T03:33:35.466Z,8.8
2022-11-28T03:34:37.291Z,8.5
2022-11-28T03:35:37.778Z,9.4
2022-11-28T03:36:37.690Z,8.2
2022-11-28T03:37:38.989Z,8.4
2022-11-28T03:38:35.950Z,9.0
2022-11-28T03:39:38.343Z,10.5
2022-11-28T03:40:43.136Z,7.6
2022-11-28T03:41:52.251Z,9.1
2022-11-28T03:42:37.340Z,8.5
2022-11-28T03:43:38.767Z,10.0
2022-11-28T03:44:38.865Z,9.7
2022-11-28T03:45:37.603Z,8.9
2022-11-28T03:46:36.472Z,8.0
2022-11-28T03:47:37.864Z,9.1
2022-11-28T03:48:36.501Z,8.6
2022-11-28T03:49:36.885Z,8.5
2022-11-28T03:50:36.989Z,7.9
2022-11-28T03:51:40.819Z,10.1
2022-11-28T03:52:40.149Z,9.4
2022-11-28T03:53:37.573Z,8.2
2022-11-28T03:54:38.936Z,8.2
2022-11-28T03:55:36.899Z,8.3
2022-11-28T03:56:42.335Z,9.8
2022-11-28T03:57:37.677Z,9.1
2022-11-28T03:58:37.499Z,7.0
2022-11-28T03:59:40.669Z,8.4
2022-11-28T04:00:36.130Z,8.1
2022-11-28T04:01:47.390Z,8.4
2022-11-28T04:02:48.382Z,9.3
2022-11-28T04:03:42.312Z,8.1
2022-11-28T04:04:45.422Z,7.9
2022-11-28T04:05:39.193Z,7.8
2022-11-28T04:06:38.588Z,8.4
2022-11-28T04:07:38.945Z,7.8
2022-11-28T04:08:38.686Z,8.3
2022-11-28T04:09:40.874Z,7.9
2022-11-28T04:10:36.071Z,7.7
2022-11-28T04:11:41.159Z,8.3
2022-11-28T04:12:41.808Z,8.2
2022-11-28T04:13:52.251Z,9.4
2022-11-28T04:14:36.441Z,8.2
2022-11-28T04:15:39.487Z,8.4
2022-11-28T04:16:37.010Z,8.5
2022-11-28T04:17:39.678Z,8.5
2022-11-28T04:18:38.937Z,9.7
2022-11-28T04:19:40.676Z,6.6
2022-11-28T04:20:54.294Z,8.2
2022-11-28T04:21:41.280Z,6.5
2022-11-28T04:22:38.136Z,8.4
2022-11-28T04:23:35.374Z,7.9
2022-11-28T04:24:38.516Z,9.3
2022-11-28T04:25:36.577Z,8.4
2022-11-28T04:26:35.752Z,7.5
2022-11-28T04:27:36.537Z,8.0
2022-11-28T04:28:35.642Z,7.7
2022-11-28T04:29:39.727Z,8.9
2022-11-28T04:30:35.534Z,8.5
2022-11-28T04:31:34.693Z,8.2
2022-11-28T04:32:36.213Z,8.3
2022-11-28T04:33:36.489Z,8.6
2022-11-28T04:34:35.390Z,8.0
2022-11-28T04:35:38.709Z,9.2
2022-11-28T04:36:35.904Z,7.9
2022-11-28T04:37:35.988Z,6.9
2022-11-28T04:38:34.915Z,8.6
2022-11-28T04:39:35.427Z,8.4
2022-11-28T04:40:37.481Z,7.9
2022-11-28T04:41:37.507Z,7.5
2022-11-28T04:42:40.261Z,7.9
2022-11-28T04:43:36.889Z,8.1
2022-11-28T04:44:37.516Z,7.8
2022-11-28T04:45:38.908Z,7.6
2022-11-28T04:46:42.296Z,8.0
2022-11-28T04:47:34.414Z,7.9
2022-11-28T04:48:34.737Z,7.2
2022-11-28T04:49:34.103Z,9.0
2022-11-28T04:50:38.713Z,7.5
2022-11-28T04:51:45.294Z,9.2
2022-11-28T04:52:50.786Z,8.4
2022-11-28T04:53:36.225Z,7.9
2022-11-28T04:54:45.098Z,8.4
2022-11-28T04:55:39.868Z,7.7
2022-11-28T04:56:42.294Z,8.7
2022-11-28T04:57:36.732Z,7.9
2022-11-28T04:58:36.039Z,8.6
2022-11-28T04:59:34.298Z,7.7
2022-11-28T05:00:35.587Z,7.7
2022-11-28T05:01:36.054Z,7.0
2022-11-28T05:02:35.209Z,7.9
2022-11-28T05:03:36.761Z,7.9
2022-11-28T05:04:34.851Z,6.6
2022-11-28T05:05:39.628Z,6.2
2022-11-28T05:06:35.738Z,8.3
2022-11-28T05:07:34.401Z,8.2
2022-11-28T05:08:34.384Z,7.5
2022-11-28T05:09:34.875Z,8.0
2022-11-28T05:10:34.683Z,8.5
2022-11-28T05:11:34.459Z,8.5
2022-11-28T05:12:34.328Z,8.1
2022-11-28T05:13:34.138Z,7.4
2022-11-28T05:14:33.968Z,7.7
2022-11-28T05:15:34.650Z,6.9
2022-11-28T05:16:34.537Z,8.1
2022-11-28T05:17:38.960Z,8.1
2022-11-28T05:18:34.071Z,7.0
2022-11-28T05:19:33.941Z,8.3
2022-11-28T05:20:35.805Z,7.8
2022-11-28T05:21:33.953Z,8.1
2022-11-28T05:22:34.717Z,6.9
2022-11-28T05:23:38.181Z,7.6
2022-11-28T05:24:34.464Z,7.3
2022-11-28T05:25:36.251Z,7.3
2022-11-28T05:26:34.096Z,6.9
2022-11-28T05:27:34.655Z,6.1
2022-11-28T05:28:34.490Z,7.0
2022-11-28T05:29:34.262Z,6.9
2022-11-28T05:30:34.141Z,8.0
2022-11-28T05:31:34.503Z,8.0
2022-11-28T05:32:34.203Z,8.2
2022-11-28T05:33:33.993Z,7.2
2022-11-28T05:34:34.932Z,7.4
2022-11-28T05:35:37.634Z,7.0
2022-11-28T05:36:34.395Z,7.0
2022-11-28T05:37:34.215Z,7.9
2022-11-28T05:38:34.602Z,6.6
2022-11-28T05:39:34.242Z,7.2
2022-11-28T05:40:34.488Z,7.7
2022-11-28T05:41:34.317Z,6.9
2022-11-28T05:42:35.115Z,6.7
2022-11-28T05:43:33.991Z,8.2
2022-11-28T05:44:35.588Z,7.3
2022-11-28T05:45:34.538Z,6.5
2022-11-28T05:46:34.290Z,6.8
2022-11-28T05:47:34.098Z,8.0
2022-11-28T05:48:34.503Z,7.3
2022-11-28T05:49:34.752Z,6.3
2022-11-28T05:50:39.626Z,6.2
2022-11-28T05:51:34.320Z,6.5
2022-11-28T05:52:34.171Z,6.4
2022-11-28T05:53:34.037Z,6.2
2022-11-28T05:54:34.659Z,7.4
2022-11-28T05:55:36.090Z,7.4
2022-11-28T05:56:36.986Z,7.6
2022-11-28T05:57:34.105Z,6.9
2022-11-28T05:58:34.241Z,7.0
2022-11-28T05:59:34.862Z,8.1
2022-11-28T06:00:34.559Z,9.6
2022-11-28T06:01:34.719Z,6.0
2022-11-28T06:02:34.803Z,8.8
2022-11-28T06:03:33.882Z,7.2
2022-11-28T06:04:34.733Z,6.1
2022-11-28T06:05:42.106Z,7.9
2022-11-28T06:06:35.026Z,7.9
2022-11-28T06:07:34.236Z,7.9
2022-11-28T06:08:34.859Z,7.2
2022-11-28T06:09:34.631Z,6.5
2022-11-28T06:10:34.499Z,7.8
2022-11-28T06:11:34.639Z,7.1
2022-11-28T06:12:34.035Z,7.1
2022-11-28T06:13:33.860Z,7.6
2022-11-28T06:14:34.154Z,7.5
2022-11-28T06:15:37.906Z,7.3
2022-11-28T06:16:34.301Z,7.9
2022-11-28T06:17:34.025Z,7.3
2022-11-28T06:18:34.695Z,6.9
2022-11-28T06:19:34.575Z,6.4
2022-11-28T06:20:34.064Z,7.4
2022-11-28T06:21:34.585Z,6.0
2022-11-28T06:22:34.432Z,6.3
2022-11-28T06:23:34.354Z,6.8
2022-11-28T06:24:34.082Z,6.9
2022-11-28T06:25:34.785Z,5.8
2022-11-28T06:26:34.582Z,6.4
2022-11-28T06:27:34.486Z,6.5
2022-11-28T06:28:34.444Z,6.9
2022-11-28T06:29:34.078Z,7.5
2022-11-28T06:30:33.889Z,6.5
2022-11-28T06:31:34.769Z,6.5
2022-11-28T06:32:33.951Z,7.4
2022-11-28T06:33:34.631Z,6.9
2022-11-28T06:34:34.519Z,5.7
2022-11-28T06:35:34.331Z,6.2
2022-11-28T06:36:34.134Z,6.7
2022-11-28T06:37:33.934Z,7.3
2022-11-28T06:38:34.745Z,7.3
2022-11-28T06:39:34.679Z,6.3
2022-11-28T06:40:36.697Z,6.8
2022-11-28T06:41:34.257Z,8.1
2022-11-28T06:42:34.635Z,6.1
2022-11-28T06:43:34.616Z,7.0
2022-11-28T06:44:34.438Z,6.1
2022-11-28T06:45:34.731Z,5.8
2022-11-28T06:46:34.227Z,7.6
2022-11-28T06:47:34.397Z,6.2
2022-11-28T06:48:34.133Z,5.6
2022-11-28T06:49:33.992Z,6.0
2022-11-28T06:50:34.740Z,6.8
2022-11-28T06:51:34.671Z,6.5
2022-11-28T06:52:34.331Z,6.7
2022-11-28T06:53:34.201Z,6.3
2022-11-28T06:54:34.427Z,6.9
2022-11-28T06:55:34.367Z,6.2
2022-11-28T06:56:34.205Z,5.9
2022-11-28T06:57:33.871Z,6.3
2022-11-28T06:58:34.771Z,6.7
2022-11-28T06:59:34.426Z,5.8
2022-11-28T07:00:34.248Z,6.8
2022-11-28T07:01:34.119Z,6.0
2022-11-28T07:02:34.970Z,5.5
2022-11-28T07:03:34.115Z,6.9
2022-11-28T07:04:33.975Z,7.5
2022-11-28T07:05:34.744Z,6.0
2022-11-28T07:06:34.590Z,6.5
2022-11-28T07:07:45.648Z,6.9
2022-11-28T07:08:34.538Z,6.2
2022-11-28T07:09:34.047Z,7.3
2022-11-28T07:10:34.635Z,6.4
2022-11-28T07:11:34.464Z,6.6
2022-11-28T07:12:34.360Z,6.8
2022-11-28T07:13:34.537Z,6.4
2022-11-28T07:14:34.250Z,5.2
2022-11-28T07:15:34.642Z,6.2
2022-11-28T07:16:34.500Z,7.0
2022-11-28T07:17:34.310Z,5.7
2022-11-28T07:18:34.206Z,6.6
2022-11-28T07:19:34.354Z,7.6
2022-11-28T07:20:34.563Z,5.8
2022-11-28T07:21:34.053Z,5.8
2022-11-28T07:22:34.686Z,5.8
2022-11-28T07:23:34.517Z,6.9
2022-11-28T07:24:34.326Z,6.5
2022-11-28T07:25:34.136Z,6.2
2022-11-28T07:26:33.932Z,6.1
2022-11-28T07:27:34.674Z,6.5
2022-11-28T07:28:34.287Z,6.5
2022-11-28T07:29:34.861Z,5.5
2022-11-28T07:30:34.578Z,7.0
2022-11-28T07:31:35.953Z,7.3
2022-11-28T07:32:34.234Z,6.1
2022-11-28T07:33:34.101Z,5.9
2022-11-28T07:34:34.772Z,5.4
2022-11-28T07:35:34.509Z,5.8
2022-11-28T07:36:34.363Z,5.4
2022-11-28T07:37:34.261Z,7.0
2022-11-28T07:38:34.034Z,7.2
2022-11-28T07:39:34.811Z,6.1
2022-11-28T07:40:34.502Z,7.6
2022-11-28T07:41:34.570Z,6.2
2022-11-28T07:42:34.155Z,6.8
2022-11-28T07:43:33.969Z,6.5
2022-11-28T07:44:34.707Z,6.5
2022-11-28T07:45:53.720Z,5.7
2022-11-28T07:46:34.474Z,5.5
2022-11-28T07:47:34.100Z,6.0
2022-11-28T07:48:34.312Z,7.1
2022-11-28T07:49:34.667Z,8.3
2022-11-28T07:50:34.777Z,7.6
2022-11-28T07:51:34.358Z,6.1
2022-11-28T07:52:34.141Z,5.8
2022-11-28T07:53:34.183Z,6.1
2022-11-28T07:54:34.601Z,5.5
2022-11-28T07:55:34.732Z,6.2
2022-11-28T07:57:10.325Z,5.9
2022-11-28T07:57:34.093Z,6.4
2022-11-28T07:58:35.709Z,5.9
2022-11-28T07:59:34.722Z,5.8
2022-11-28T08:00:33.978Z,6.3
2022-11-28T08:01:35.061Z,6.3
2022-11-28T08:02:34.566Z,5.7
2022-11-28T08:03:35.425Z,6.3
2022-11-28T08:04:35.394Z,5.0
2022-11-28T08:05:33.966Z,6.0
2022-11-28T08:06:36.263Z,6.8
2022-11-28T08:07:34.083Z,7.6
2022-11-28T08:08:35.006Z,6.1
2022-11-28T08:09:34.540Z,7.1
2022-11-28T08:10:34.363Z,6.8
2022-11-28T08:11:34.228Z,5.9
2022-11-28T08:12:34.056Z,6.5
2022-11-28T08:13:39.241Z,6.5
2022-11-28T08:14:34.566Z,6.7
2022-11-28T08:15:36.118Z,6.0
2022-11-28T08:16:34.315Z,6.4
2022-11-28T08:17:34.171Z,6.5
2022-11-28T08:18:35.042Z,6.7
2022-11-28T08:19:35.519Z,6.5
2022-11-28T08:20:33.889Z,6.6
2022-11-28T08:21:34.567Z,6.5
2022-11-28T08:22:34.519Z,6.4
2022-11-28T08:23:34.764Z,7.2
2022-11-28T08:24:34.044Z,5.6
2022-11-28T08:25:34.277Z,7.2
2022-11-28T08:26:34.387Z,5.6
2022-11-28T08:27:33.929Z,6.3
2022-11-28T08:28:35.098Z,5.9
2022-11-28T08:29:34.540Z,6.2
2022-11-28T08:30:34.545Z,5.9
2022-11-28T08:31:35.450Z,6.3
2022-11-28T08:32:33.947Z,6.0
2022-11-28T08:33:34.635Z,5.7
2022-11-28T08:34:34.421Z,5.7
2022-11-28T08:35:34.622Z,7.5
2022-11-28T08:36:34.524Z,6.0
2022-11-28T08:37:34.313Z,6.0
2022-11-28T08:38:34.392Z,5.6
2022-11-28T08:39:33.932Z,6.2
2022-11-28T08:40:34.695Z,5.9
2022-11-28T08:41:34.490Z,5.8
2022-11-28T08:42:34.377Z,6.0
2022-11-28T08:43:34.580Z,5.8
2022-11-28T08:44:33.928Z,5.3
2022-11-28T08:45:37.613Z,6.2
2022-11-28T08:46:34.461Z,5.9
2022-11-28T08:47:34.298Z,6.1
2022-11-28T08:48:34.616Z,5.9
2022-11-28T08:49:35.749Z,6.4
2022-11-28T08:50:34.673Z,6.5
2022-11-28T08:51:35.576Z,6.3
2022-11-28T08:52:34.266Z,5.6
2022-11-28T08:53:34.132Z,5.6
2022-11-28T08:54:34.406Z,6.4
2022-11-28T08:55:39.140Z,6.5
2022-11-28T08:56:34.175Z,6.1
2022-11-28T08:57:34.703Z,5.5
2022-11-28T08:58:34.650Z,6.6
2022-11-28T08:59:34.624Z,5.8
2022-11-28T09:00:34.111Z,5.6
2022-11-28T09:01:33.958Z,4.8
2022-11-28T09:02:34.698Z,4.5
2022-11-28T09:03:34.525Z,5.4
2022-11-28T09:04:34.457Z,6.0
2022-11-28T09:05:34.131Z,6.0
2022-11-28T09:06:33.967Z,5.6
2022-11-28T09:07:34.737Z,5.3
2022-11-28T09:08:34.480Z,5.5
2022-11-28T09:09:34.381Z,5.1
2022-11-28T09:10:37.544Z,6.9
2022-11-28T09:11:33.904Z,6.8
2022-11-28T09:12:34.652Z,5.5
2022-11-28T09:13:35.275Z,5.1
2022-11-28T09:14:34.301Z,5.3
2022-11-28T09:15:34.469Z,5.5
2022-11-28T09:16:33.957Z,5.8
2022-11-28T09:17:34.571Z,6.0
2022-11-28T09:18:34.811Z,5.8
2022-11-28T09:19:34.224Z,6.1
2022-11-28T09:20:34.200Z,6.1
2022-11-28T09:21:35.669Z,4.0
2022-11-28T09:22:34.592Z,4.9
2022-11-28T09:23:34.918Z,5.4
2022-11-28T09:24:34.238Z,5.4
2022-11-28T09:25:34.559Z,5.2
2022-11-28T09:26:33.890Z,5.4
2022-11-28T09:27:34.624Z,4.3
2022-11-28T09:28:34.384Z,5.4
2022-11-28T09:29:34.229Z,5.5
2022-11-28T09:30:34.218Z,4.4
2022-11-28T09:31:34.890Z,4.5
2022-11-28T09:32:34.927Z,4.5
2022-11-28T09:33:34.999Z,4.7
2022-11-28T09:34:34.201Z,3.9
2022-11-28T09:35:36.680Z,4.5
2022-11-28T09:36:34.716Z,4.6
2022-11-28T09:37:34.500Z,5.7
2022-11-28T09:38:33.998Z,4.8
2022-11-28T09:39:44.304Z,5.1
2022-11-28T09:40:39.104Z,4.2
2022-11-28T09:41:44.811Z,4.5
2022-11-28T09:42:40.461Z,3.8
2022-11-28T09:43:36.983Z,4.1
2022-11-28T09:44:42.094Z,4.9
2022-11-28T09:45:34.534Z,4.6
2022-11-28T09:46:34.939Z,4.8
2022-11-28T09:47:35.430Z,3.6
2022-11-28T09:48:39.066Z,4.8
2022-11-28T09:49:42.920Z,4.8
2022-11-28T09:50:37.307Z,4.5
2022-11-28T09:51:39.060Z,4.3
2022-11-28T09:52:50.888Z,4.4
2022-11-28T09:53:45.327Z,4.2
2022-11-28T09:54:43.691Z,5.5
2022-11-28T09:55:37.463Z,3.6
2022-11-28T09:56:34.368Z,4.9
2022-11-28T09:57:41.836Z,4.7
2022-11-28T09:58:54.319Z,4.4
2022-11-28T09:59:34.483Z,4.8
2022-11-28T10:00:36.733Z,4.8
2022-11-28T10:01:44.802Z,4.4
2022-11-28T10:02:37.326Z,4.7
2022-11-28T10:03:39.082Z,5.9
2022-11-28T10:04:38.926Z,5.0
2022-11-28T10:05:39.600Z,4.7
2022-11-28T10:06:42.315Z,4.7
2022-11-28T10:07:52.235Z,4.9
2022-11-28T10:08:50.063Z,4.6
2022-11-28T10:09:41.645Z,4.0
2022-11-28T10:10:42.443Z,4.6
2022-11-28T10:11:44.813Z,5.1
2022-11-28T10:12:41.849Z,4.7
2022-11-28T10:14:06.695Z,3.8
2022-11-28T10:14:42.315Z,4.7
2022-11-28T10:15:48.356Z,4.1
2022-11-28T10:16:39.369Z,5.3
2022-11-28T10:17:47.817Z,4.6
2022-11-28T10:18:47.739Z,4.4
2022-11-28T10:19:53.847Z,3.9
2022-11-28T10:20:40.847Z,4.8
2022-11-28T10:21:38.129Z,4.3
2022-11-28T10:22:36.806Z,4.3
2022-11-28T10:23:43.056Z,4.9
2022-11-28T10:24:39.627Z,4.5
2022-11-28T10:25:47.480Z,4.2
2022-11-28T10:26:39.551Z,4.9
2022-11-28T10:27:35.009Z,5.0
2022-11-28T10:28:36.478Z,5.8
2022-11-28T10:29:46.899Z,4.9
2022-11-28T10:30:37.371Z,4.7
2022-11-28T10:31:41.247Z,4.2
2022-11-28T10:32:37.006Z,3.9
2022-11-28T10:33:43.513Z,3.8
2022-11-28T10:34:41.813Z,5.2
2022-11-28T10:35:52.240Z,4.6
2022-11-28T10:36:45.324Z,5.0
2022-11-28T10:37:35.727Z,4.4
2022-11-28T10:38:35.508Z,4.9
2022-11-28T10:39:35.936Z,4.6
2022-11-28T10:40:38.881Z,5.3
2022-11-28T10:41:37.191Z,3.9
2022-11-28T10:42:39.347Z,4.2
2022-11-28T10:43:42.644Z,3.5
2022-11-28T10:44:38.307Z,4.7
2022-11-28T10:45:38.840Z,3.8
2022-11-28T10:46:48.363Z,4.4
2022-11-28T10:47:39.351Z,4.4
2022-11-28T10:48:53.846Z,4.6
2022-11-28T10:49:56.840Z,4.7
2022-11-28T10:50:41.332Z,4.7
2022-11-28T10:51:52.788Z,4.2
2022-11-28T10:52:39.262Z,4.4
2022-11-28T10:53:41.814Z,4.0
2022-11-28T10:54:41.813Z,3.8
2022-11-28T10:55:54.301Z,4.3
2022-11-28T10:56:38.974Z,4.9
2022-11-28T10:57:44.811Z,5.5
2022-11-28T10:58:45.032Z,4.3
2022-11-28T10:59:39.345Z,4.3
2022-11-28T11:00:34.935Z,5.1
2022-11-28T11:01:36.390Z,4.0
2022-11-28T11:02:55.789Z,4.5
2022-11-28T11:03:35.268Z,4.7
2022-11-28T11:04:35.829Z,4.0
2022-11-28T11:05:34.836Z,4.5
2022-11-28T11:06:41.636Z,3.6
2022-11-28T11:07:34.983Z,3.7
2022-11-28T11:08:38.410Z,4.4
2022-11-28T11:09:34.496Z,3.8
2022-11-28T11:10:39.101Z,5.0
2022-11-28T11:11:36.205Z,4.0
2022-11-28T11:12:34.757Z,4.5
2022-11-28T11:13:39.462Z,4.0
2022-11-28T11:14:38.286Z,3.6
2022-11-28T11:15:34.325Z,3.1
2022-11-28T11:16:52.257Z,3.4
2022-11-28T11:17:36.571Z,3.8
2022-11-28T11:18:36.059Z,4.1
2022-11-28T11:19:35.822Z,2.7
2022-11-28T11:20:35.913Z,4.1
2022-11-28T11:21:33.998Z,4.2
2022-11-28T11:22:34.635Z,3.2
2022-11-28T11:23:38.435Z,4.4
2022-11-28T11:24:34.279Z,3.6
2022-11-28T11:25:34.107Z,4.6
2022-11-28T11:26:37.045Z,3.7
2022-11-28T11:27:35.600Z,4.8
2022-11-28T11:28:42.388Z,3.5
2022-11-28T11:29:36.175Z,3.3
2022-11-28T11:30:35.195Z,5.4
2022-11-28T11:31:42.988Z,3.8
2022-11-28T11:32:34.547Z,4.2
2022-11-28T11:33:35.703Z,3.4
2022-11-28T11:34:36.736Z,4.2
2022-11-28T11:35:35.513Z,3.9
2022-11-28T11:36:35.946Z,4.1
2022-11-28T11:37:35.976Z,3.4
2022-11-28T11:38:37.760Z,3.2
2022-11-28T11:39:39.093Z,4.0
2022-11-28T11:40:34.006Z,3.8
2022-11-28T11:41:34.641Z,3.3
2022-11-28T11:42:34.445Z,3.8
2022-11-28T11:43:34.281Z,4.6
2022-11-28T11:44:34.505Z,4.2
2022-11-28T11:45:34.610Z,4.5
2022-11-28T11:46:35.605Z,4.2
2022-11-28T11:47:41.365Z,5.2
2022-11-28T11:48:38.741Z,3.7
2022-11-28T11:49:35.199Z,3.7
2022-11-28T11:50:33.905Z,3.5
2022-11-28T11:51:39.279Z,3.8
2022-11-28T11:52:34.384Z,3.7
2022-11-28T11:53:34.213Z,4.1
2022-11-28T11:54:33.990Z,4.7
2022-11-28T11:55:42.320Z,4.3
2022-11-28T11:56:35.285Z,3.7
2022-11-28T11:57:37.730Z,3.9
2022-11-28T11:58:41.826Z,3.5
2022-11-28T11:59:42.184Z,3.6
2022-11-28T12:00:38.945Z,3.8
2022-11-28T12:01:35.361Z,2.9
2022-11-28T12:02:40.178Z,3.8
2022-11-28T12:03:52.358Z,4.1
2022-11-28T12:04:45.802Z,3.3
2022-11-28T12:06:14.321Z,3.4
2022-11-28T12:06:38.317Z,3.0
2022-11-28T12:07:41.040Z,4.0
2022-11-28T12:08:37.150Z,4.0
2022-11-28T12:09:43.195Z,4.0
2022-11-28T12:10:35.458Z,3.4
2022-11-28T12:11:45.613Z,3.9
2022-11-28T12:12:37.449Z,2.8
2022-11-28T12:13:34.591Z,4.0
2022-11-28T12:14:35.305Z,2.7
2022-11-28T12:15:44.878Z,3.4
2022-11-28T12:16:44.567Z,2.9
2022-11-28T12:17:55.753Z,3.9
2022-11-28T12:18:52.246Z,3.8
2022-11-28T12:19:39.142Z,3.7
2022-11-28T12:20:44.890Z,3.9
2022-11-28T12:21:45.332Z,3.5
2022-11-28T12:22:39.519Z,4.2
2022-11-28T12:23:44.847Z,3.1
2022-11-28T12:24:44.851Z,3.4
2022-11-28T12:25:41.840Z,4.0
2022-11-28T12:26:48.030Z,2.8
2022-11-28T12:27:47.824Z,4.0
2022-11-28T12:28:48.332Z,4.1
2022-11-28T12:29:42.666Z,3.8
2022-11-28T12:30:41.915Z,3.5
2022-11-28T12:31:50.904Z,3.1
2022-11-28T12:32:47.828Z,2.7
2022-11-28T12:33:45.399Z,3.3
2022-11-28T12:34:45.338Z,3.2
2022-11-28T12:35:41.482Z,3.0
2022-11-28T12:36:41.941Z,3.0
2022-11-28T12:38:09.141Z,2.9
2022-11-28T12:38:45.335Z,3.0
2022-11-28T12:39:51.390Z,2.9
2022-11-28T12:40:37.138Z,3.1
2022-11-28T12:41:41.851Z,2.0
2022-11-28T12:42:39.736Z,3.4
2022-11-28T12:43:45.331Z,4.5
2022-11-28T12:44:50.844Z,3.6
2022-11-28T12:45:39.046Z,2.8
2022-11-28T12:46:38.960Z,2.6
2022-11-28T12:47:45.356Z,3.0
2022-11-28T12:48:42.361Z,3.3
2022-11-28T12:49:47.842Z,3.0
2022-11-28T12:50:38.718Z,2.8
2022-11-28T12:51:38.844Z,2.8
2022-11-28T12:52:48.453Z,2.9
2022-11-28T12:53:51.349Z,2.8
2022-11-28T12:54:44.848Z,2.8
2022-11-28T12:55:38.913Z,2.5
2022-11-28T12:56:45.339Z,3.1
2022-11-28T12:57:42.329Z,2.4
2022-11-28T12:58:45.604Z,2.5
2022-11-28T12:59:38.459Z,2.7
2022-11-28T13:00:37.678Z,2.0
2022-11-28T13:01:42.449Z,3.2
2022-11-28T13:02:39.533Z,3.2
2022-11-28T13:03:53.906Z,2.8
2022-11-28T13:04:39.000Z,3.0
2022-11-28T13:05:50.354Z,3.0
2022-11-28T13:06:51.352Z,3.4
2022-11-28T13:07:42.370Z,2.4
2022-11-28T13:08:48.813Z,3.4
2022-11-28T13:09:37.506Z,3.3
2022-11-28T13:10:51.788Z,3.4
2022-11-28T13:11:39.592Z,3.0
2022-11-28T13:12:39.324Z,3.2
2022-11-28T13:13:47.944Z,3.7
2022-11-28T13:14:54.292Z,2.5
2022-11-28T13:15:39.841Z,2.9
2022-11-28T13:16:39.590Z,2.7
2022-11-28T13:17:47.856Z,2.8
2022-11-28T13:18:38.733Z,3.3
2022-11-28T13:19:50.860Z,2.9
2022-11-28T13:20:42.387Z,1.9
2022-11-28T13:21:42.359Z,3.3
2022-11-28T13:22:41.854Z,3.3
2022-11-28T13:23:47.855Z,2.6
2022-11-28T13:24:52.256Z,3.0
2022-11-28T13:25:51.374Z,2.8
2022-11-28T13:26:52.906Z,2.4
2022-11-28T13:27:39.211Z,2.2
2022-11-28T13:28:56.902Z,3.0
2022-11-28T13:29:41.940Z,1.9
2022-11-28T13:30:44.003Z,2.7
2022-11-28T13:31:41.682Z,3.2
2022-11-28T13:32:39.177Z,3.0
2022-11-28T13:33:41.864Z,3.1
2022-11-28T13:34:34.191Z,2.5
2022-11-28T13:35:35.019Z,2.5
2022-11-28T13:39:09.588Z,3.0
2022-11-28T13:39:38.940Z,2.7
2022-11-28T13:40:55.608Z,2.7
2022-11-28T13:42:21.267Z,3.3
2022-11-28T13:43:03.946Z,2.2
2022-11-28T13:43:41.860Z,3.0